sensor_id;sensor_type;location;lat;lon;timestamp;pressure;altitude;pressure_sealevel;temperature;humidity
53550;BME280;67273;52.914;-0.982;2023-02-15T00:00:54;102302.56;;;17.37;41.01
53550;BME280;67273;52.914;-0.982;2023-02-15T00:03:20;102304.44;;;17.36;40.85
53550;BME280;67273;52.914;-0.982;2023-02-15T00:05:46;102300.03;;;17.35;40.94
53550;BME280;67273;52.914;-0.982;2023-02-15T00:08:12;102293.75;;;17.35;41.00
53550;BME280;67273;52.914;-0.982;2023-02-15T00:10:37;102294.78;;;17.34;41.00
53550;BME280;67273;52.914;-0.982;2023-02-15T00:13:04;102293.13;;;17.33;40.89
53550;BME280;67273;52.914;-0.982;2023-02-15T00:15:30;102280.56;;;17.32;40.68
53550;BME280;67273;52.914;-0.982;2023-02-15T00:17:56;102279.91;;;17.29;40.84
53550;BME280;67273;52.914;-0.982;2023-02-15T00:20:22;102281.59;;;17.31;41.01
53550;BME280;67273;52.914;-0.982;2023-02-15T00:22:48;102279.91;;;17.29;40.75
53550;BME280;67273;52.914;-0.982;2023-02-15T00:25:14;102273.19;;;17.25;40.87
53550;BME280;67273;52.914;-0.982;2023-02-15T00:27:39;102269.81;;;17.23;40.93
53550;BME280;67273;52.914;-0.982;2023-02-15T00:30:07;102273.19;;;17.25;40.92
53550;BME280;67273;52.914;-0.982;2023-02-15T00:32:33;102263.53;;;17.23;40.98
53550;BME280;67273;52.914;-0.982;2023-02-15T00:34:59;102261.00;;;17.21;40.76
53550;BME280;67273;52.914;-0.982;2023-02-15T00:37:24;102253.91;;;17.20;41.00
53550;BME280;67273;52.914;-0.982;2023-02-15T00:39:50;102251.00;;;17.22;40.55
53550;BME280;67273;52.914;-0.982;2023-02-15T00:42:16;102255.78;;;17.20;40.71
53550;BME280;67273;52.914;-0.982;2023-02-15T00:44:42;102245.09;;;17.18;40.83
53550;BME280;67273;52.914;-0.982;2023-02-15T00:47:09;102237.13;;;17.17;40.91
53550;BME280;67273;52.914;-0.982;2023-02-15T00:49:35;102238.16;;;17.16;41.06
53550;BME280;67273;52.914;-0.982;2023-02-15T00:52:00;102231.88;;;17.15;40.98
53550;BME280;67273;52.914;-0.982;2023-02-15T00:54:26;102232.06;;;17.14;40.70
53550;BME280;67273;52.914;-0.982;2023-02-15T00:56:52;102234.78;;;17.14;40.85
53550;BME280;67273;52.914;-0.982;2023-02-15T00:59:18;102223.28;;;17.12;40.98
53550;BME280;67273;52.914;-0.982;2023-02-15T01:01:44;102219.75;;;17.11;40.86
53550;BME280;67273;52.914;-0.982;2023-02-15T01:04:12;102207.19;;;17.10;40.67
53550;BME280;67273;52.914;-0.982;2023-02-15T01:06:38;102210.09;;;17.08;40.66
53550;BME280;67273;52.914;-0.982;2023-02-15T01:09:04;102214.50;;;17.09;41.00
53550;BME280;67273;52.914;-0.982;2023-02-15T01:11:30;102206.53;;;17.08;40.79
53550;BME280;67273;52.914;-0.982;2023-02-15T01:13:57;102199.81;;;17.04;40.91
53550;BME280;67273;52.914;-0.982;2023-02-15T01:16:24;102202.31;;;17.05;40.81
53550;BME280;67273;52.914;-0.982;2023-02-15T01:18:50;102195.41;;;17.03;40.71
53550;BME280;67273;52.914;-0.982;2023-02-15T01:21:20;102186.41;;;17.02;40.69
53550;BME280;67273;52.914;-0.982;2023-02-15T01:23:46;102181.81;;;17.03;40.91
53550;BME280;67273;52.914;-0.982;2023-02-15T01:26:13;102171.97;;;17.02;40.85
53550;BME280;67273;52.914;-0.982;2023-02-15T01:28:39;102162.16;;;17.01;40.95
53550;BME280;67273;52.914;-0.982;2023-02-15T01:31:06;102152.31;;;17.00;40.86
53550;BME280;67273;52.914;-0.982;2023-02-15T01:33:32;102152.50;;;16.98;40.71
53550;BME280;67273;52.914;-0.982;2023-02-15T01:35:58;102157.13;;;16.98;40.67
53550;BME280;67273;52.914;-0.982;2023-02-15T01:38:25;102149.16;;;16.96;40.78
53550;BME280;67273;52.914;-0.982;2023-02-15T01:40:51;102145.41;;;16.97;40.92
53550;BME280;67273;52.914;-0.982;2023-02-15T01:43:18;102143.09;;;16.94;40.80
53550;BME280;67273;52.914;-0.982;2023-02-15T01:45:47;102139.53;;;16.94;40.77
53550;BME280;67273;52.914;-0.982;2023-02-15T01:48:19;102130.75;;;16.91;40.85
53550;BME280;67273;52.914;-0.982;2023-02-15T01:50:50;102131.13;;;16.88;40.89
53550;BME280;67273;52.914;-0.982;2023-02-15T01:53:22;102136.75;;;16.87;41.08
53550;BME280;67273;52.914;-0.982;2023-02-15T01:55:54;102126.06;;;16.85;40.92
53550;BME280;67273;52.914;-0.982;2023-02-15T01:58:22;102131.50;;;16.85;40.67
53550;BME280;67273;52.914;-0.982;2023-02-15T02:00:48;102127.75;;;16.86;40.75
53550;BME280;67273;52.914;-0.982;2023-02-15T02:03:14;102124.41;;;16.84;40.82
53550;BME280;67273;52.914;-0.982;2023-02-15T02:05:40;102121.84;;;16.83;40.91
53550;BME280;67273;52.914;-0.982;2023-02-15T02:08:07;102124.56;;;16.83;40.85
53550;BME280;67273;52.914;-0.982;2023-02-15T02:10:35;102115.56;;;16.82;40.68
53550;BME280;67273;52.914;-0.982;2023-02-15T02:13:04;102120.34;;;16.80;40.98
53550;BME280;67273;52.914;-0.982;2023-02-15T02:15:39;102117.63;;;16.80;40.94
53550;BME280;67273;52.914;-0.982;2023-02-15T02:18:15;102117.81;;;16.79;40.73
53550;BME280;67273;52.914;-0.982;2023-02-15T02:21:21;102107.16;;;16.77;40.81
53550;BME280;67273;52.914;-0.982;2023-02-15T02:24:15;102102.75;;;16.76;40.85
53550;BME280;67273;52.914;-0.982;2023-02-15T02:27:09;102105.28;;;16.78;40.65
53550;BME280;67273;52.914;-0.982;2023-02-15T02:35:44;102091.44;;;16.72;40.79
53550;BME280;67273;52.914;-0.982;2023-02-15T02:38:23;102094.34;;;16.71;40.99
53550;BME280;67273;52.914;-0.982;2023-02-15T02:40:59;102090.16;;;16.68;40.73
53550;BME280;67273;52.914;-0.982;2023-02-15T02:43:35;102083.69;;;16.69;40.79
53550;BME280;67273;52.914;-0.982;2023-02-15T02:46:11;102079.69;;;16.65;40.83
53550;BME280;67273;52.914;-0.982;2023-02-15T02:48:44;102069.00;;;16.64;40.95
53550;BME280;67273;52.914;-0.982;2023-02-15T02:51:14;102061.50;;;16.66;40.91
53550;BME280;67273;52.914;-0.982;2023-02-15T02:53:51;102039.81;;;16.66;40.89
53550;BME280;67273;52.914;-0.982;2023-02-15T02:56:24;102045.81;;;16.61;40.71
53550;BME280;67273;52.914;-0.982;2023-02-15T02:58:59;102029.72;;;16.60;40.99
53550;BME280;67273;52.914;-0.982;2023-02-15T03:01:35;102028.88;;;16.59;40.78
53550;BME280;67273;52.914;-0.982;2023-02-15T03:04:09;102019.91;;;16.59;41.11
53550;BME280;67273;52.914;-0.982;2023-02-15T03:06:42;102012.81;;;16.58;40.81
53550;BME280;67273;52.914;-0.982;2023-02-15T03:09:19;102010.09;;;16.58;40.91
53550;BME280;67273;52.914;-0.982;2023-02-15T03:11:51;101998.56;;;16.56;40.76
53550;BME280;67273;52.914;-0.982;2023-02-15T03:14:22;101999.44;;;16.56;41.04
53550;BME280;67273;52.914;-0.982;2023-02-15T03:16:52;101989.41;;;16.57;40.91
53550;BME280;67273;52.914;-0.982;2023-02-15T03:19:25;101989.22;;;16.58;40.70
53550;BME280;67273;52.914;-0.982;2023-02-15T03:21:57;101986.69;;;16.57;40.75
53550;BME280;67273;52.914;-0.982;2023-02-15T03:24:43;101980.63;;;16.54;40.83
53550;BME280;67273;52.914;-0.982;2023-02-15T03:27:14;101970.97;;;16.52;40.78
53550;BME280;67273;52.914;-0.982;2023-02-15T03:29:50;101977.47;;;16.51;40.60
53550;BME280;67273;52.914;-0.982;2023-02-15T03:32:21;101967.44;;;16.51;40.91
53550;BME280;67273;52.914;-0.982;2023-02-15T03:34:51;101960.34;;;16.50;40.88
53550;BME280;67273;52.914;-0.982;2023-02-15T03:37:22;101953.22;;;16.49;40.79
53550;BME280;67273;52.914;-0.982;2023-02-15T03:39:53;101957.81;;;16.49;40.47
53550;BME280;67273;52.914;-0.982;2023-02-15T03:42:25;101954.66;;;16.45;40.92
53550;BME280;67273;52.914;-0.982;2023-02-15T03:44:57;101951.94;;;16.45;40.54
53550;BME280;67273;52.914;-0.982;2023-02-15T03:47:26;101949.22;;;16.45;40.87
53550;BME280;67273;52.914;-0.982;2023-02-15T03:50:00;101936.69;;;16.44;40.97
53550;BME280;67273;52.914;-0.982;2023-02-15T03:52:28;101941.09;;;16.45;40.42
53550;BME280;67273;52.914;-0.982;2023-02-15T03:54:55;101939.41;;;16.44;40.68
53550;BME280;67273;52.914;-0.982;2023-02-15T03:57:23;101929.59;;;16.43;40.59
53550;BME280;67273;52.914;-0.982;2023-02-15T04:00:13;101929.78;;;16.42;40.42
53550;BME280;67273;52.914;-0.982;2023-02-15T04:03:08;101932.69;;;16.40;40.51
53550;BME280;67273;52.914;-0.982;2023-02-15T04:05:37;101928.94;;;16.41;40.77
53550;BME280;67273;52.914;-0.982;2023-02-15T04:08:03;101935.59;;;16.39;40.65
53550;BME280;67273;52.914;-0.982;2023-02-15T04:10:29;101932.06;;;16.38;40.59
53550;BME280;67273;52.914;-0.982;2023-02-15T04:13:14;101926.63;;;16.38;40.66
53550;BME280;67273;52.914;-0.982;2023-02-15T04:15:39;101920.34;;;16.38;40.78
53550;BME280;67273;52.914;-0.982;2023-02-15T04:18:23;101933.91;;;16.38;40.60
53550;BME280;67273;52.914;-0.982;2023-02-15T04:21:09;101929.53;;;16.37;40.65
53550;BME280;67273;52.914;-0.982;2023-02-15T04:23:54;101925.94;;;16.36;40.79
53550;BME280;67273;52.914;-0.982;2023-02-15T04:26:38;101926.19;;;16.34;40.86
53550;BME280;67273;52.914;-0.982;2023-02-15T04:29:04;101923.00;;;16.31;40.95
53550;BME280;67273;52.914;-0.982;2023-02-15T04:31:29;101921.78;;;16.33;40.50
53550;BME280;67273;52.914;-0.982;2023-02-15T04:33:55;101923.47;;;16.34;40.61
53550;BME280;67273;52.914;-0.982;2023-02-15T04:36:22;101916.53;;;16.32;40.72
53550;BME280;67273;52.914;-0.982;2023-02-15T04:38:48;101911.31;;;16.30;40.57
53550;BME280;67273;52.914;-0.982;2023-02-15T04:41:14;101913.81;;;16.32;40.89
53550;BME280;67273;52.914;-0.982;2023-02-15T04:43:39;101903.34;;;16.29;40.80
53550;BME280;67273;52.914;-0.982;2023-02-15T04:46:05;101896.25;;;16.28;40.93
53550;BME280;67273;52.914;-0.982;2023-02-15T04:48:31;101885.41;;;16.28;40.62
53550;BME280;67273;52.914;-0.982;2023-02-15T04:50:57;101885.41;;;16.28;40.77
53550;BME280;67273;52.914;-0.982;2023-02-15T04:53:24;101878.31;;;16.27;40.79
53550;BME280;67273;52.914;-0.982;2023-02-15T04:55:49;101882.91;;;16.26;40.57
53550;BME280;67273;52.914;-0.982;2023-02-15T04:58:15;101876.63;;;16.26;40.38
53550;BME280;67273;52.914;-0.982;2023-02-15T05:00:41;101864.09;;;16.25;40.52
53550;BME280;67273;52.914;-0.982;2023-02-15T05:03:06;101868.69;;;16.24;40.64
53550;BME280;67273;52.914;-0.982;2023-02-15T05:05:32;101878.72;;;16.24;40.45
53550;BME280;67273;52.914;-0.982;2023-02-15T05:07:58;101887.69;;;16.24;40.74
53550;BME280;67273;52.914;-0.982;2023-02-15T05:10:25;101884.13;;;16.24;40.80
53550;BME280;67273;52.914;-0.982;2023-02-15T05:12:51;101883.28;;;16.23;40.70
53550;BME280;67273;52.914;-0.982;2023-02-15T05:15:16;101884.13;;;16.24;40.83
53550;BME280;67273;52.914;-0.982;2023-02-15T05:17:42;101868.25;;;16.21;40.30
53550;BME280;67273;52.914;-0.982;2023-02-15T05:20:09;101869.91;;;16.22;40.67
53550;BME280;67273;52.914;-0.982;2023-02-15T05:22:34;101869.06;;;16.21;40.47
53550;BME280;67273;52.914;-0.982;2023-02-15T05:25:00;101871.97;;;16.20;40.22
53550;BME280;67273;52.914;-0.982;2023-02-15T05:27:46;101874.03;;;16.18;40.75
53550;BME280;67273;52.914;-0.982;2023-02-15T05:30:30;101865.72;;;16.19;40.76
53550;BME280;67273;52.914;-0.982;2023-02-15T05:32:56;101864.22;;;16.16;40.73
53550;BME280;67273;52.914;-0.982;2023-02-15T05:35:21;101861.50;;;16.16;40.59
53550;BME280;67273;52.914;-0.982;2023-02-15T05:37:47;101862.75;;;16.14;40.95
53550;BME280;67273;52.914;-0.982;2023-02-15T05:40:13;101866.94;;;16.16;40.89
53550;BME280;67273;52.914;-0.982;2023-02-15T05:42:39;101860.69;;;16.16;40.64
53550;BME280;67273;52.914;-0.982;2023-02-15T05:45:06;101869.00;;;16.14;40.27
53550;BME280;67273;52.914;-0.982;2023-02-15T05:47:32;101861.72;;;16.15;40.46
53550;BME280;67273;52.914;-0.982;2023-02-15T05:49:58;101846.47;;;16.14;40.67
53550;BME280;67273;52.914;-0.982;2023-02-15T05:52:24;101853.78;;;16.13;40.60
53550;BME280;67273;52.914;-0.982;2023-02-15T05:54:49;101843.97;;;16.12;40.82
53550;BME280;67273;52.914;-0.982;2023-02-15T05:57:15;101844.78;;;16.13;40.64
53550;BME280;67273;52.914;-0.982;2023-02-15T05:59:41;101840.59;;;16.10;40.73
53550;BME280;67273;52.914;-0.982;2023-02-15T06:02:08;101829.56;;;16.12;40.69
53550;BME280;67273;52.914;-0.982;2023-02-15T06:04:34;101833.13;;;16.12;40.33
53550;BME280;67273;52.914;-0.982;2023-02-15T06:07:00;101826.03;;;16.11;40.47
53550;BME280;67273;52.914;-0.982;2023-02-15T06:09:26;101826.84;;;16.12;40.40
53550;BME280;67273;52.914;-0.982;2023-02-15T06:11:51;101824.34;;;16.10;40.61
53550;BME280;67273;52.914;-0.982;2023-02-15T06:14:17;101828.06;;;16.09;40.38
53550;BME280;67273;52.914;-0.982;2023-02-15T06:16:43;101822.66;;;16.09;40.79
53550;BME280;67273;52.914;-0.982;2023-02-15T06:19:10;101823.69;;;16.08;40.67
53550;BME280;67273;52.914;-0.982;2023-02-15T06:21:36;101833.50;;;16.09;40.75
53550;BME280;67273;52.914;-0.982;2023-02-15T06:24:01;101822.66;;;16.09;40.59
53550;BME280;67273;52.914;-0.982;2023-02-15T06:26:27;101838.09;;;16.09;40.68
53550;BME280;67273;52.914;-0.982;2023-02-15T06:28:53;101833.50;;;16.09;40.31
53550;BME280;67273;52.914;-0.982;2023-02-15T06:31:19;101825.34;;;16.09;40.60
53550;BME280;67273;52.914;-0.982;2023-02-15T06:33:45;101826.41;;;16.08;40.74
53550;BME280;67273;52.914;-0.982;2023-02-15T06:36:12;101828.06;;;16.09;40.72
53550;BME280;67273;52.914;-0.982;2023-02-15T06:38:38;101819.28;;;16.07;40.61
53550;BME280;67273;52.914;-0.982;2023-02-15T06:41:04;101830.13;;;16.07;40.71
53550;BME280;67273;52.914;-0.982;2023-02-15T06:43:30;101823.88;;;16.07;40.69
53550;BME280;67273;52.914;-0.982;2023-02-15T06:45:55;101827.84;;;16.04;40.79
53550;BME280;67273;52.914;-0.982;2023-02-15T06:48:21;101827.84;;;16.04;40.90
53550;BME280;67273;52.914;-0.982;2023-02-15T06:50:47;101837.63;;;16.05;40.75
53550;BME280;67273;52.914;-0.982;2023-02-15T06:53:14;101828.84;;;16.03;40.56
53550;BME280;67273;52.914;-0.982;2023-02-15T06:55:40;101836.78;;;16.05;40.81
53550;BME280;67273;52.914;-0.982;2023-02-15T06:58:05;101839.69;;;16.03;40.76
53550;BME280;67273;52.914;-0.982;2023-02-15T07:00:31;101833.44;;;16.03;40.76
53550;BME280;67273;52.914;-0.982;2023-02-15T07:02:58;101838.00;;;16.02;40.58
53550;BME280;67273;52.914;-0.982;2023-02-15T07:05:24;101843.06;;;16.05;40.32
53550;BME280;67273;52.914;-0.982;2023-02-15T07:07:50;101839.31;;;16.06;40.64
53550;BME280;67273;52.914;-0.982;2023-02-15T07:10:17;101838.47;;;16.06;40.93
53550;BME280;67273;52.914;-0.982;2023-02-15T07:12:43;101833.25;;;16.04;40.63
53550;BME280;67273;52.914;-0.982;2023-02-15T07:15:12;101838.00;;;16.02;40.90
53550;BME280;67273;52.914;-0.982;2023-02-15T07:17:38;101838.00;;;16.02;40.78
53550;BME280;67273;52.914;-0.982;2023-02-15T07:20:06;101830.94;;;16.01;40.73
53550;BME280;67273;52.914;-0.982;2023-02-15T07:22:33;101820.28;;;16.00;40.47
53550;BME280;67273;52.914;-0.982;2023-02-15T07:24:59;101828.22;;;16.01;40.46
53550;BME280;67273;52.914;-0.982;2023-02-15T07:27:26;101831.94;;;16.00;40.76
53550;BME280;67273;52.914;-0.982;2023-02-15T07:29:52;101825.88;;;15.98;40.66
53550;BME280;67273;52.914;-0.982;2023-02-15T07:32:17;101826.06;;;15.96;40.91
53550;BME280;67273;52.914;-0.982;2023-02-15T07:34:43;101830.47;;;15.98;41.01
53550;BME280;67273;52.914;-0.982;2023-02-15T07:37:09;101835.25;;;15.95;40.86
53550;BME280;67273;52.914;-0.982;2023-02-15T07:39:35;101834.19;;;15.96;40.70
53550;BME280;67273;52.914;-0.982;2023-02-15T07:42:00;101830.94;;;16.01;40.98
53550;BME280;67273;52.914;-0.982;2023-02-15T07:44:31;101823.44;;;16.03;41.12
53550;BME280;67273;52.914;-0.982;2023-02-15T07:46:56;101819.63;;;15.98;41.29
53550;BME280;67273;52.914;-0.982;2023-02-15T07:49:22;101811.69;;;15.96;41.28
53550;BME280;67273;52.914;-0.982;2023-02-15T07:51:48;101813.75;;;15.94;41.31
53550;BME280;67273;52.914;-0.982;2023-02-15T07:54:14;101818.13;;;15.95;40.94
53550;BME280;67273;52.914;-0.982;2023-02-15T07:56:40;101809.16;;;15.94;40.90
53550;BME280;67273;52.914;-0.982;2023-02-15T07:59:05;101810.00;;;15.95;41.00
53550;BME280;67273;52.914;-0.982;2023-02-15T08:01:36;101809.16;;;15.94;41.11
53550;BME280;67273;52.914;-0.982;2023-02-15T08:04:03;101809.34;;;15.93;41.03
53550;BME280;67273;52.914;-0.982;2023-02-15T08:06:31;101810.41;;;15.92;40.96
53550;BME280;67273;52.914;-0.982;2023-02-15T08:08:57;101806.63;;;15.93;40.99
53550;BME280;67273;52.914;-0.982;2023-02-15T08:11:24;101803.94;;;15.93;41.05
53550;BME280;67273;52.914;-0.982;2023-02-15T08:13:52;101801.22;;;15.93;40.61
53550;BME280;67273;52.914;-0.982;2023-02-15T08:16:23;101795.81;;;15.93;40.82
53550;BME280;67273;52.914;-0.982;2023-02-15T08:18:51;101795.63;;;15.94;40.67
53550;BME280;67273;52.914;-0.982;2023-02-15T08:21:17;101793.72;;;15.95;41.12
53550;BME280;67273;52.914;-0.982;2023-02-15T08:23:43;101791.03;;;15.95;40.78
53550;BME280;67273;52.914;-0.982;2023-02-15T08:26:09;101782.91;;;15.95;41.07
53550;BME280;67273;52.914;-0.982;2023-02-15T08:28:35;101774.13;;;15.93;41.13
53550;BME280;67273;52.914;-0.982;2023-02-15T08:31:06;101780.38;;;15.93;40.75
53550;BME280;67273;52.914;-0.982;2023-02-15T08:33:32;101774.13;;;15.93;40.75
53550;BME280;67273;52.914;-0.982;2023-02-15T08:36:03;101778.72;;;15.92;41.00
53550;BME280;67273;52.914;-0.982;2023-02-15T08:38:29;101783.09;;;15.93;41.01
53550;BME280;67273;52.914;-0.982;2023-02-15T08:40:55;101779.34;;;15.94;40.62
53550;BME280;67273;52.914;-0.982;2023-02-15T08:43:21;101774.13;;;15.93;40.95
53550;BME280;67273;52.914;-0.982;2023-02-15T08:45:47;101762.25;;;15.94;41.06
53550;BME280;67273;52.914;-0.982;2023-02-15T08:48:12;101768.69;;;15.93;40.67
53550;BME280;67273;52.914;-0.982;2023-02-15T08:50:38;101763.28;;;15.93;40.79
53550;BME280;67273;52.914;-0.982;2023-02-15T08:53:05;101755.97;;;15.93;40.90
53550;BME280;67273;52.914;-0.982;2023-02-15T08:55:31;101744.31;;;15.93;41.07
53550;BME280;67273;52.914;-0.982;2023-02-15T08:57:57;101758.69;;;15.93;41.05
53550;BME280;67273;52.914;-0.982;2023-02-15T09:00:23;101755.97;;;15.93;40.99
53550;BME280;67273;52.914;-0.982;2023-02-15T09:02:48;101757.84;;;15.93;40.83
53550;BME280;67273;52.914;-0.982;2023-02-15T09:05:14;101761.41;;;15.93;40.72
53550;BME280;67273;52.914;-0.982;2023-02-15T09:07:40;101765.81;;;15.94;41.05
53550;BME280;67273;52.914;-0.982;2023-02-15T09:10:08;101764.09;;;15.93;40.95
53550;BME280;67273;52.914;-0.982;2023-02-15T09:12:35;101762.44;;;15.92;40.77
53550;BME280;67273;52.914;-0.982;2023-02-15T09:15:00;101766.19;;;15.91;41.07
53550;BME280;67273;52.914;-0.982;2023-02-15T09:17:26;101750.78;;;15.92;41.02
53550;BME280;67273;52.914;-0.982;2023-02-15T09:19:52;101747.00;;;15.93;40.74
53550;BME280;67273;52.914;-0.982;2023-02-15T09:22:18;101746.19;;;15.92;40.67
53550;BME280;67273;52.914;-0.982;2023-02-15T09:24:44;101748.06;;;15.92;40.68
53550;BME280;67273;52.914;-0.982;2023-02-15T09:27:11;101740.78;;;15.92;40.74
53550;BME280;67273;52.914;-0.982;2023-02-15T09:29:37;101732.63;;;15.92;40.77
53550;BME280;67273;52.914;-0.982;2023-02-15T09:32:03;101733.66;;;15.91;41.18
53550;BME280;67273;52.914;-0.982;2023-02-15T09:34:29;101737.88;;;15.94;40.87
53550;BME280;67273;52.914;-0.982;2023-02-15T09:36:56;101738.69;;;15.94;41.03
53550;BME280;67273;52.914;-0.982;2023-02-15T09:39:23;101739.53;;;15.95;40.67
53550;BME280;67273;52.914;-0.982;2023-02-15T09:42:18;101734.97;;;15.95;40.93
53550;BME280;67273;52.914;-0.982;2023-02-15T09:45:02;101732.03;;;15.97;40.53
53550;BME280;67273;52.914;-0.982;2023-02-15T09:50:47;101709.53;;;15.96;40.78
53550;BME280;67273;52.914;-0.982;2023-02-15T09:53:40;101710.34;;;15.97;40.96
53550;BME280;67273;52.914;-0.982;2023-02-15T09:56:16;101713.72;;;15.99;40.61
53550;BME280;67273;52.914;-0.982;2023-02-15T09:58:53;101713.53;;;16.01;40.83
53550;BME280;67273;52.914;-0.982;2023-02-15T10:01:29;101711.66;;;16.01;40.65
53550;BME280;67273;52.914;-0.982;2023-02-15T10:04:13;101722.50;;;16.01;40.53
53550;BME280;67273;52.914;-0.982;2023-02-15T10:06:45;101721.44;;;16.02;40.90
53550;BME280;67273;52.914;-0.982;2023-02-15T10:09:24;101735.88;;;16.03;40.68
53550;BME280;67273;52.914;-0.982;2023-02-15T10:12:06;101741.47;;;16.01;40.67
53550;BME280;67273;52.914;-0.982;2023-02-15T10:14:49;101742.50;;;16.00;40.96
53550;BME280;67273;52.914;-0.982;2023-02-15T10:17:32;101746.06;;;16.01;40.87
53550;BME280;67273;52.914;-0.982;2023-02-15T10:20:12;101729.81;;;16.01;40.62
53550;BME280;67273;52.914;-0.982;2023-02-15T10:22:56;101720.63;;;16.02;40.57
53550;BME280;67273;52.914;-0.982;2023-02-15T10:25:32;101724.16;;;16.02;40.83
53550;BME280;67273;52.914;-0.982;2023-02-15T10:28:05;101727.91;;;16.01;40.70
53550;BME280;67273;52.914;-0.982;2023-02-15T10:30:38;101716.03;;;16.02;40.53
53550;BME280;67273;52.914;-0.982;2023-02-15T10:33:14;101708.75;;;16.03;40.90
53550;BME280;67273;52.914;-0.982;2023-02-15T10:35:47;101708.75;;;16.03;40.75
53550;BME280;67273;52.914;-0.982;2023-02-15T10:38:25;101694.34;;;16.02;40.63
53550;BME280;67273;52.914;-0.982;2023-02-15T10:41:08;101700.63;;;16.03;40.78
53550;BME280;67273;52.914;-0.982;2023-02-15T10:43:45;101705.00;;;16.04;40.52
53550;BME280;67273;52.914;-0.982;2023-02-15T10:46:26;101706.03;;;16.03;40.63
53550;BME280;67273;52.914;-0.982;2023-02-15T10:52:02;101716.69;;;16.04;40.62
53550;BME280;67273;52.914;-0.982;2023-02-15T10:54:42;101703.97;;;16.05;40.66
53550;BME280;67273;52.914;-0.982;2023-02-15T10:57:15;101712.09;;;16.05;40.74
53550;BME280;67273;52.914;-0.982;2023-02-15T10:59:58;101714.81;;;16.05;40.62
53550;BME280;67273;52.914;-0.982;2023-02-15T11:02:37;101725.47;;;16.06;40.49
53550;BME280;67273;52.914;-0.982;2023-02-15T11:05:19;101723.78;;;16.05;40.76
53550;BME280;67273;52.914;-0.982;2023-02-15T11:07:51;101711.28;;;16.04;40.84
53550;BME280;67273;52.914;-0.982;2023-02-15T11:10:26;101702.09;;;16.05;40.92
53550;BME280;67273;52.914;-0.982;2023-02-15T11:12:54;101703.78;;;16.06;40.58
53550;BME280;67273;52.914;-0.982;2023-02-15T11:15:26;101703.78;;;16.06;40.60
53550;BME280;67273;52.914;-0.982;2023-02-15T11:18:00;101710.03;;;16.07;40.99
53550;BME280;67273;52.914;-0.982;2023-02-15T11:20:29;101717.13;;;16.08;40.86
53550;BME280;67273;52.914;-0.982;2023-02-15T11:22:56;101709.19;;;16.06;40.76
53550;BME280;67273;52.914;-0.982;2023-02-15T11:25:25;101698.34;;;16.06;41.10
53550;BME280;67273;52.914;-0.982;2023-02-15T11:27:52;101699.19;;;16.07;40.91
53550;BME280;67273;52.914;-0.982;2023-02-15T11:30:21;101689.16;;;16.07;40.67
53550;BME280;67273;52.914;-0.982;2023-02-15T11:32:49;101693.81;;;16.13;41.28
53550;BME280;67273;52.914;-0.982;2023-02-15T11:35:23;101697.94;;;16.09;41.18
53550;BME280;67273;52.914;-0.982;2023-02-15T11:37:54;101692.53;;;16.09;41.00
53550;BME280;67273;52.914;-0.982;2023-02-15T11:40:25;101694.41;;;16.09;41.27
53550;BME280;67273;52.914;-0.982;2023-02-15T11:42:55;101690.84;;;16.08;41.05
53550;BME280;67273;52.914;-0.982;2023-02-15T11:45:26;101686.25;;;16.09;41.25
53550;BME280;67273;52.914;-0.982;2023-02-15T11:47:53;101691.69;;;16.09;41.16
53550;BME280;67273;52.914;-0.982;2023-02-15T11:50:23;101689.81;;;16.09;40.98
53550;BME280;67273;52.914;-0.982;2023-02-15T11:52:49;101680.00;;;16.08;40.97
53550;BME280;67273;52.914;-0.982;2023-02-15T11:55:20;101680.00;;;16.08;41.36
53550;BME280;67273;52.914;-0.982;2023-02-15T11:57:50;101672.53;;;16.10;40.83
53550;BME280;67273;52.914;-0.982;2023-02-15T12:00:25;101669.81;;;16.10;40.89
53550;BME280;67273;52.914;-0.982;2023-02-15T12:02:54;101657.28;;;16.09;41.04
53550;BME280;67273;52.914;-0.982;2023-02-15T12:05:26;101651.84;;;16.09;41.27
53550;BME280;67273;52.914;-0.982;2023-02-15T12:07:55;101650.84;;;16.10;41.05
53550;BME280;67273;52.914;-0.982;2023-02-15T12:10:24;101654.38;;;16.11;41.13
53550;BME280;67273;52.914;-0.982;2023-02-15T12:13:09;101641.69;;;16.11;41.10
53550;BME280;67273;52.914;-0.982;2023-02-15T12:15:35;101630.84;;;16.11;40.82
53550;BME280;67273;52.914;-0.982;2023-02-15T12:18:02;101633.53;;;16.11;41.09
53550;BME280;67273;52.914;-0.982;2023-02-15T12:20:31;101643.34;;;16.12;40.96
53550;BME280;67273;52.914;-0.982;2023-02-15T12:23:00;101637.91;;;16.12;40.69
53550;BME280;67273;52.914;-0.982;2023-02-15T12:25:33;101642.50;;;16.12;41.01
53550;BME280;67273;52.914;-0.982;2023-02-15T12:28:02;101648.75;;;16.12;40.82
53550;BME280;67273;52.914;-0.982;2023-02-15T12:30:30;101646.88;;;16.13;41.16
53550;BME280;67273;52.914;-0.982;2023-02-15T12:32:59;101642.13;;;16.15;41.46
53550;BME280;67273;52.914;-0.982;2023-02-15T12:35:31;101642.94;;;16.15;41.61
53550;BME280;67273;52.914;-0.982;2023-02-15T12:38:01;101648.38;;;16.15;41.57
53550;BME280;67273;52.914;-0.982;2023-02-15T12:40:28;101648.38;;;16.15;41.45
53550;BME280;67273;52.914;-0.982;2023-02-15T12:42:54;101633.13;;;16.14;41.49
53550;BME280;67273;52.914;-0.982;2023-02-15T12:45:24;101633.13;;;16.14;41.13
53550;BME280;67273;52.914;-0.982;2023-02-15T12:48:09;101624.16;;;16.14;41.20
53550;BME280;67273;52.914;-0.982;2023-02-15T12:50:37;101615.84;;;16.15;41.45
53550;BME280;67273;52.914;-0.982;2023-02-15T12:53:08;101621.25;;;16.15;41.07
53550;BME280;67273;52.914;-0.982;2023-02-15T12:55:38;101599.56;;;16.15;41.11
53550;BME280;67273;52.914;-0.982;2023-02-15T12:58:08;101593.09;;;16.16;41.38
53550;BME280;67273;52.914;-0.982;2023-02-15T13:00:34;101580.59;;;16.15;41.22
53550;BME280;67273;52.914;-0.982;2023-02-15T13:03:01;101579.53;;;16.16;40.96
53550;BME280;67273;52.914;-0.982;2023-02-15T13:05:32;101587.47;;;16.18;41.12